الصفحة الرئيسية
METAR-TAF:

METAR-TAF

مطار :

فلاديفوستوك, روسيا

دائرة عرض: 43-07N, خط طول: 131-56E, ارتفاع: 184 متر

مراقبة الطقس الحالي

تاريخ ووقت الإصدار 39 دقيقة قبل الساعة 02:30UTC
ريح 12 عقدة من الجنوب الشرقي
درجة الحرارة 15°درجة مئوية
الرطوبة 82%
ضغط 1013 hPa
الرؤية 10 كم أو أكثر
غيوم مفككة على ارتفاع 3300 قدم, مزنة ركامية.

METAR: UHWW 230230Z 14006MPS 9999 BKN033CB 15/12 Q1013 WS R25L R25L/290160 NOSIG RMK QFE758

زمن: 13:09 (03:09 UTC)

توقعات

تاريخ ووقت الإصدار 1ساعة و 14 دقيقة قبل الساعة 01:55UTC
التوقعات صالحة من23 الساعة 03 UTC إلى 24 الساعة 03 UTC
ريح 6 عقدة من الجنوب
الرؤية: 4000 متر
غيوم مفككة على ارتفاع 1100 قدم
غيوم مفككة على ارتفاع 2000 قدم, مزنة ركامية.
زخات من الأمطار الخفيفة
مؤقت
من 23 الساعة 03 UTC إلى 23 الساعة 09 UTC
ريح 19 عقدة من الجنوب/الجنوب الشرقي
عاصفة رعدية, مطر خفيف
أصبح
من 23 الساعة 10 UTC إلى 23 الساعة 12 UTC
ريح 6 عقدة من الشمال الغربي
الرؤية 10 كم أو أكثر

TAF: UHWW 230155Z 2303/2403 17003MPS 4000 -SHRA BKN011 BKN020CB TEMPO 2303/2309 16010MPS -TSRA BECMG 2310/2312 32003MPS 9999 NSW

أرصاد الطقس والتوقعات من أكثر من 4000 مطار (تقارير الطقس للمطار METAR والتنبؤ بالطقس بالمطارTAF).

المحطات المتاحة هي النقط الصفراء والحمراء على الخريطة.

حرك المؤشر فوق النقطة لمعرفة اسم المحطة.

ثم انقر لمعرفة أرصاد وتوقعات الطقس.

لتغيير الخارطة: اضغط على الأزرار الخضراء مع رمز الصليب الأسود للتكبير. على الزر الأخضر مع شرطة للتصغير، أو على الأسهم الخضراء للخرائط المجاورة.


METAR-TAF: